sensor_id;sensor_type;location;lat;lon;timestamp;temperature;humidity
1225;DHT22;602;48.000;7.840;2022-10-16T00:02:14;17.50;99.90
1225;DHT22;602;48.000;7.840;2022-10-16T00:04:41;17.40;99.90
1225;DHT22;602;48.000;7.840;2022-10-16T00:07:10;17.40;99.90
1225;DHT22;602;48.000;7.840;2022-10-16T00:09:36;17.40;99.90
1225;DHT22;602;48.000;7.840;2022-10-16T00:12:03;17.40;99.90
1225;DHT22;602;48.000;7.840;2022-10-16T00:14:32;17.30;99.90
1225;DHT22;602;48.000;7.840;2022-10-16T00:16:59;17.40;99.90
1225;DHT22;602;48.000;7.840;2022-10-16T00:19:26;17.40;99.90
1225;DHT22;602;48.000;7.840;2022-10-16T00:21:53;17.40;99.90
1225;DHT22;602;48.000;7.840;2022-10-16T00:24:21;17.40;99.90
1225;DHT22;602;48.000;7.840;2022-10-16T00:26:49;17.40;99.90
1225;DHT22;602;48.000;7.840;2022-10-16T00:29:16;17.30;99.90
1225;DHT22;602;48.000;7.840;2022-10-16T00:31:43;17.30;99.90
1225;DHT22;602;48.000;7.840;2022-10-16T00:34:10;17.40;99.90
1225;DHT22;602;48.000;7.840;2022-10-16T00:36:37;17.70;99.90
1225;DHT22;602;48.000;7.840;2022-10-16T00:39:03;17.80;99.90
1225;DHT22;602;48.000;7.840;2022-10-16T00:41:33;17.90;99.90
1225;DHT22;602;48.000;7.840;2022-10-16T00:44:01;18.00;99.90
1225;DHT22;602;48.000;7.840;2022-10-16T00:46:31;18.10;99.90
1225;DHT22;602;48.000;7.840;2022-10-16T00:49:03;18.20;99.90
1225;DHT22;602;48.000;7.840;2022-10-16T00:51:33;18.00;99.90
1225;DHT22;602;48.000;7.840;2022-10-16T00:54:01;17.90;99.90
1225;DHT22;602;48.000;7.840;2022-10-16T00:56:28;17.80;99.90
1225;DHT22;602;48.000;7.840;2022-10-16T00:58:57;17.70;99.90
1225;DHT22;602;48.000;7.840;2022-10-16T01:01:24;17.60;99.90
1225;DHT22;602;48.000;7.840;2022-10-16T01:03:51;17.60;99.90
1225;DHT22;602;48.000;7.840;2022-10-16T01:06:28;17.50;99.90
1225;DHT22;602;48.000;7.840;2022-10-16T01:09:08;17.40;99.90
1225;DHT22;602;48.000;7.840;2022-10-16T01:11:44;17.40;99.90
1225;DHT22;602;48.000;7.840;2022-10-16T01:14:19;17.50;99.90
1225;DHT22;602;48.000;7.840;2022-10-16T01:16:53;17.40;99.90
1225;DHT22;602;48.000;7.840;2022-10-16T01:19:31;17.40;99.90
1225;DHT22;602;48.000;7.840;2022-10-16T01:22:02;17.50;99.90
1225;DHT22;602;48.000;7.840;2022-10-16T01:24:33;17.50;99.90
1225;DHT22;602;48.000;7.840;2022-10-16T01:27:11;17.50;99.90
1225;DHT22;602;48.000;7.840;2022-10-16T01:29:43;17.60;99.90
1225;DHT22;602;48.000;7.840;2022-10-16T01:32:16;17.60;99.90
1225;DHT22;602;48.000;7.840;2022-10-16T01:34:48;17.50;99.90
1225;DHT22;602;48.000;7.840;2022-10-16T01:37:21;17.40;99.90
1225;DHT22;602;48.000;7.840;2022-10-16T01:39:50;17.50;99.90
1225;DHT22;602;48.000;7.840;2022-10-16T01:42:23;17.40;99.90
1225;DHT22;602;48.000;7.840;2022-10-16T01:44:53;17.40;99.90
1225;DHT22;602;48.000;7.840;2022-10-16T01:47:23;17.40;99.90
1225;DHT22;602;48.000;7.840;2022-10-16T01:49:52;17.40;99.90
1225;DHT22;602;48.000;7.840;2022-10-16T01:52:23;17.50;99.90
1225;DHT22;602;48.000;7.840;2022-10-16T01:54:53;17.50;99.90
1225;DHT22;602;48.000;7.840;2022-10-16T01:57:24;17.50;99.90
1225;DHT22;602;48.000;7.840;2022-10-16T01:59:56;17.40;99.90
1225;DHT22;602;48.000;7.840;2022-10-16T02:02:26;17.30;99.90
1225;DHT22;602;48.000;7.840;2022-10-16T02:04:58;17.30;99.90
1225;DHT22;602;48.000;7.840;2022-10-16T02:07:28;17.40;99.90
1225;DHT22;602;48.000;7.840;2022-10-16T02:09:55;17.60;99.90
1225;DHT22;602;48.000;7.840;2022-10-16T02:12:26;17.70;99.90
1225;DHT22;602;48.000;7.840;2022-10-16T02:14:54;17.60;99.90
1225;DHT22;602;48.000;7.840;2022-10-16T02:17:21;17.60;99.90
1225;DHT22;602;48.000;7.840;2022-10-16T02:19:50;17.60;99.90
1225;DHT22;602;48.000;7.840;2022-10-16T02:22:24;17.50;99.90
1225;DHT22;602;48.000;7.840;2022-10-16T02:24:57;17.40;99.90
1225;DHT22;602;48.000;7.840;2022-10-16T02:27:29;17.40;99.90
1225;DHT22;602;48.000;7.840;2022-10-16T02:30:03;17.60;99.90
1225;DHT22;602;48.000;7.840;2022-10-16T02:32:34;17.70;99.90
1225;DHT22;602;48.000;7.840;2022-10-16T02:35:03;17.80;99.90
1225;DHT22;602;48.000;7.840;2022-10-16T02:37:31;17.80;99.90
1225;DHT22;602;48.000;7.840;2022-10-16T02:39:58;17.80;99.90
1225;DHT22;602;48.000;7.840;2022-10-16T02:42:33;17.90;99.90
1225;DHT22;602;48.000;7.840;2022-10-16T02:45:00;17.90;99.90
1225;DHT22;602;48.000;7.840;2022-10-16T02:47:27;17.80;99.90
1225;DHT22;602;48.000;7.840;2022-10-16T02:49:54;17.80;99.90
1225;DHT22;602;48.000;7.840;2022-10-16T02:52:21;17.80;99.90
1225;DHT22;602;48.000;7.840;2022-10-16T02:54:48;17.90;99.90
1225;DHT22;602;48.000;7.840;2022-10-16T02:57:15;17.90;99.90
1225;DHT22;602;48.000;7.840;2022-10-16T02:59:43;17.90;99.90
1225;DHT22;602;48.000;7.840;2022-10-16T03:02:10;18.00;99.90
1225;DHT22;602;48.000;7.840;2022-10-16T03:04:37;18.00;99.90
1225;DHT22;602;48.000;7.840;2022-10-16T03:07:04;18.00;99.90
1225;DHT22;602;48.000;7.840;2022-10-16T03:09:31;17.90;99.90
1225;DHT22;602;48.000;7.840;2022-10-16T03:11:58;17.90;99.90
1225;DHT22;602;48.000;7.840;2022-10-16T03:14:25;17.90;99.90
1225;DHT22;602;48.000;7.840;2022-10-16T03:16:53;18.00;99.90
1225;DHT22;602;48.000;7.840;2022-10-16T03:19:20;18.10;99.90
1225;DHT22;602;48.000;7.840;2022-10-16T03:21:47;18.00;99.90
1225;DHT22;602;48.000;7.840;2022-10-16T03:24:14;18.00;99.90
1225;DHT22;602;48.000;7.840;2022-10-16T03:26:41;18.10;99.90
1225;DHT22;602;48.000;7.840;2022-10-16T03:29:08;18.00;99.90
1225;DHT22;602;48.000;7.840;2022-10-16T03:31:35;17.90;99.90
1225;DHT22;602;48.000;7.840;2022-10-16T03:34:04;17.70;99.90
1225;DHT22;602;48.000;7.840;2022-10-16T03:36:30;17.60;99.90
1225;DHT22;602;48.000;7.840;2022-10-16T03:38:57;17.50;99.90
1225;DHT22;602;48.000;7.840;2022-10-16T03:41:24;17.50;99.90
1225;DHT22;602;48.000;7.840;2022-10-16T03:43:51;17.50;99.90
1225;DHT22;602;48.000;7.840;2022-10-16T03:46:18;17.50;99.90
1225;DHT22;602;48.000;7.840;2022-10-16T03:48:45;17.60;99.90
1225;DHT22;602;48.000;7.840;2022-10-16T03:51:13;17.50;99.90
1225;DHT22;602;48.000;7.840;2022-10-16T03:53:40;17.60;99.90
1225;DHT22;602;48.000;7.840;2022-10-16T03:56:07;17.60;99.90
1225;DHT22;602;48.000;7.840;2022-10-16T03:58:34;17.70;99.90
1225;DHT22;602;48.000;7.840;2022-10-16T04:01:00;17.70;99.90
1225;DHT22;602;48.000;7.840;2022-10-16T04:03:27;17.80;99.90
1225;DHT22;602;48.000;7.840;2022-10-16T04:05:54;17.80;99.90
1225;DHT22;602;48.000;7.840;2022-10-16T04:08:22;17.70;99.90
1225;DHT22;602;48.000;7.840;2022-10-16T04:10:49;17.80;99.90
1225;DHT22;602;48.000;7.840;2022-10-16T04:13:16;17.90;99.90
1225;DHT22;602;48.000;7.840;2022-10-16T04:15:45;17.90;99.90
1225;DHT22;602;48.000;7.840;2022-10-16T04:18:12;17.90;99.90
1225;DHT22;602;48.000;7.840;2022-10-16T04:20:39;17.90;99.90
1225;DHT22;602;48.000;7.840;2022-10-16T04:23:06;17.90;99.90
1225;DHT22;602;48.000;7.840;2022-10-16T04:25:34;17.80;99.90
1225;DHT22;602;48.000;7.840;2022-10-16T04:28:01;17.80;99.90
1225;DHT22;602;48.000;7.840;2022-10-16T04:30:32;18.00;99.90
1225;DHT22;602;48.000;7.840;2022-10-16T04:33:03;17.90;99.90
1225;DHT22;602;48.000;7.840;2022-10-16T04:35:30;17.80;99.90
1225;DHT22;602;48.000;7.840;2022-10-16T04:37:58;17.90;99.90
1225;DHT22;602;48.000;7.840;2022-10-16T04:40:26;17.90;99.90
1225;DHT22;602;48.000;7.840;2022-10-16T04:42:54;17.90;99.90
1225;DHT22;602;48.000;7.840;2022-10-16T04:45:22;17.90;99.90
1225;DHT22;602;48.000;7.840;2022-10-16T04:47:49;17.90;99.90
1225;DHT22;602;48.000;7.840;2022-10-16T04:50:16;17.90;99.90
1225;DHT22;602;48.000;7.840;2022-10-16T04:52:44;17.80;99.90
1225;DHT22;602;48.000;7.840;2022-10-16T04:55:14;17.80;99.90
1225;DHT22;602;48.000;7.840;2022-10-16T04:57:45;17.80;99.90
1225;DHT22;602;48.000;7.840;2022-10-16T05:00:17;17.80;99.90
1225;DHT22;602;48.000;7.840;2022-10-16T05:02:47;17.80;99.90
1225;DHT22;602;48.000;7.840;2022-10-16T05:05:17;17.80;99.90
1225;DHT22;602;48.000;7.840;2022-10-16T05:07:45;17.90;99.90
1225;DHT22;602;48.000;7.840;2022-10-16T05:10:12;17.90;99.90
1225;DHT22;602;48.000;7.840;2022-10-16T05:12:39;17.90;99.90
1225;DHT22;602;48.000;7.840;2022-10-16T05:15:07;18.00;99.90
1225;DHT22;602;48.000;7.840;2022-10-16T05:17:35;18.10;99.90
1225;DHT22;602;48.000;7.840;2022-10-16T05:20:03;18.00;99.90
1225;DHT22;602;48.000;7.840;2022-10-16T05:22:30;18.10;99.90
1225;DHT22;602;48.000;7.840;2022-10-16T05:24:57;18.10;99.90
1225;DHT22;602;48.000;7.840;2022-10-16T05:27:23;18.00;99.90
1225;DHT22;602;48.000;7.840;2022-10-16T05:29:50;18.10;99.90
1225;DHT22;602;48.000;7.840;2022-10-16T05:32:18;18.20;99.90
1225;DHT22;602;48.000;7.840;2022-10-16T05:34:47;18.30;99.90
1225;DHT22;602;48.000;7.840;2022-10-16T05:37:13;18.30;99.90
1225;DHT22;602;48.000;7.840;2022-10-16T05:39:40;18.40;99.90
1225;DHT22;602;48.000;7.840;2022-10-16T05:42:07;18.40;99.90
1225;DHT22;602;48.000;7.840;2022-10-16T05:44:34;18.50;99.90
1225;DHT22;602;48.000;7.840;2022-10-16T05:47:01;18.60;99.90
1225;DHT22;602;48.000;7.840;2022-10-16T05:49:27;18.60;99.90
1225;DHT22;602;48.000;7.840;2022-10-16T05:51:56;18.70;99.90
1225;DHT22;602;48.000;7.840;2022-10-16T05:54:22;18.70;99.90
1225;DHT22;602;48.000;7.840;2022-10-16T05:56:49;18.70;99.90
1225;DHT22;602;48.000;7.840;2022-10-16T05:59:16;18.70;99.90
1225;DHT22;602;48.000;7.840;2022-10-16T06:01:43;18.80;99.90
1225;DHT22;602;48.000;7.840;2022-10-16T06:04:10;18.80;99.90
1225;DHT22;602;48.000;7.840;2022-10-16T06:06:36;18.60;99.90
1225;DHT22;602;48.000;7.840;2022-10-16T06:09:05;18.50;99.90
1225;DHT22;602;48.000;7.840;2022-10-16T06:11:33;18.50;99.90
1225;DHT22;602;48.000;7.840;2022-10-16T06:14:01;18.60;99.90
1225;DHT22;602;48.000;7.840;2022-10-16T06:16:32;18.60;99.90
1225;DHT22;602;48.000;7.840;2022-10-16T06:18:59;18.70;99.90
1225;DHT22;602;48.000;7.840;2022-10-16T06:21:28;18.70;99.90
1225;DHT22;602;48.000;7.840;2022-10-16T06:23:57;18.80;99.90
1225;DHT22;602;48.000;7.840;2022-10-16T06:26:28;18.80;99.90
1225;DHT22;602;48.000;7.840;2022-10-16T06:28:57;18.80;99.90
1225;DHT22;602;48.000;7.840;2022-10-16T06:31:24;18.80;99.90
1225;DHT22;602;48.000;7.840;2022-10-16T06:33:53;18.90;99.90
1225;DHT22;602;48.000;7.840;2022-10-16T06:36:22;18.90;99.90
1225;DHT22;602;48.000;7.840;2022-10-16T06:38:48;18.90;99.90
1225;DHT22;602;48.000;7.840;2022-10-16T06:41:17;19.00;99.90
1225;DHT22;602;48.000;7.840;2022-10-16T06:43:45;19.00;99.90
1225;DHT22;602;48.000;7.840;2022-10-16T06:46:14;19.10;99.90
1225;DHT22;602;48.000;7.840;2022-10-16T06:48:42;19.00;99.90
1225;DHT22;602;48.000;7.840;2022-10-16T06:51:10;19.10;99.90
1225;DHT22;602;48.000;7.840;2022-10-16T06:53:39;19.10;99.90
1225;DHT22;602;48.000;7.840;2022-10-16T06:56:07;19.10;99.90
1225;DHT22;602;48.000;7.840;2022-10-16T06:58:34;19.10;99.90
1225;DHT22;602;48.000;7.840;2022-10-16T07:01:03;19.10;99.90
1225;DHT22;602;48.000;7.840;2022-10-16T07:03:30;19.10;99.90
1225;DHT22;602;48.000;7.840;2022-10-16T07:05:56;19.10;99.90
1225;DHT22;602;48.000;7.840;2022-10-16T07:08:23;19.00;99.90
1225;DHT22;602;48.000;7.840;2022-10-16T07:10:58;19.10;99.90
1225;DHT22;602;48.000;7.840;2022-10-16T07:13:25;19.20;99.90
1225;DHT22;602;48.000;7.840;2022-10-16T07:15:52;19.10;99.90
1225;DHT22;602;48.000;7.840;2022-10-16T07:18:20;19.10;99.90
1225;DHT22;602;48.000;7.840;2022-10-16T07:20:51;19.20;99.90
1225;DHT22;602;48.000;7.840;2022-10-16T07:23:18;19.10;99.90
1225;DHT22;602;48.000;7.840;2022-10-16T07:25:45;19.20;99.90
1225;DHT22;602;48.000;7.840;2022-10-16T07:28:12;19.20;99.90
1225;DHT22;602;48.000;7.840;2022-10-16T07:30:39;19.20;99.90
1225;DHT22;602;48.000;7.840;2022-10-16T07:33:05;19.20;99.90
1225;DHT22;602;48.000;7.840;2022-10-16T07:35:34;19.20;99.90
1225;DHT22;602;48.000;7.840;2022-10-16T07:38:00;19.20;99.90
1225;DHT22;602;48.000;7.840;2022-10-16T07:40:27;19.20;99.90
1225;DHT22;602;48.000;7.840;2022-10-16T07:42:54;19.20;99.90
1225;DHT22;602;48.000;7.840;2022-10-16T07:45:21;19.20;99.90
1225;DHT22;602;48.000;7.840;2022-10-16T07:47:48;19.20;99.90
1225;DHT22;602;48.000;7.840;2022-10-16T07:50:14;19.20;99.90
1225;DHT22;602;48.000;7.840;2022-10-16T07:52:43;19.20;99.90
1225;DHT22;602;48.000;7.840;2022-10-16T07:55:09;19.30;99.90
1225;DHT22;602;48.000;7.840;2022-10-16T07:57:36;19.40;99.90
1225;DHT22;602;48.000;7.840;2022-10-16T08:00:04;19.50;99.90
1225;DHT22;602;48.000;7.840;2022-10-16T08:02:31;19.50;99.90
1225;DHT22;602;48.000;7.840;2022-10-16T08:04:58;19.50;99.90
1225;DHT22;602;48.000;7.840;2022-10-16T08:07:25;19.60;99.90
1225;DHT22;602;48.000;7.840;2022-10-16T08:09:53;19.60;99.90
1225;DHT22;602;48.000;7.840;2022-10-16T08:12:22;19.60;99.90
1225;DHT22;602;48.000;7.840;2022-10-16T08:14:48;19.60;99.90
1225;DHT22;602;48.000;7.840;2022-10-16T08:17:15;19.80;99.90
1225;DHT22;602;48.000;7.840;2022-10-16T08:19:44;19.90;99.90
1225;DHT22;602;48.000;7.840;2022-10-16T08:22:11;19.90;99.90
1225;DHT22;602;48.000;7.840;2022-10-16T08:24:38;19.90;99.90
1225;DHT22;602;48.000;7.840;2022-10-16T08:27:07;19.80;99.90
1225;DHT22;602;48.000;7.840;2022-10-16T08:29:34;19.80;99.90
1225;DHT22;602;48.000;7.840;2022-10-16T08:32:01;19.90;99.90
1225;DHT22;602;48.000;7.840;2022-10-16T08:34:30;20.00;99.90
1225;DHT22;602;48.000;7.840;2022-10-16T08:36:57;20.00;99.90
1225;DHT22;602;48.000;7.840;2022-10-16T08:39:23;20.00;99.90
1225;DHT22;602;48.000;7.840;2022-10-16T08:42:18;20.10;99.90
1225;DHT22;602;48.000;7.840;2022-10-16T08:45:08;20.00;99.90
1225;DHT22;602;48.000;7.840;2022-10-16T08:47:48;20.10;99.90
1225;DHT22;602;48.000;7.840;2022-10-16T08:50:21;20.20;99.90
1225;DHT22;602;48.000;7.840;2022-10-16T08:52:49;20.10;99.90
1225;DHT22;602;48.000;7.840;2022-10-16T08:55:33;20.10;99.90
1225;DHT22;602;48.000;7.840;2022-10-16T08:58:11;20.20;99.90
1225;DHT22;602;48.000;7.840;2022-10-16T09:00:39;20.20;99.90
1225;DHT22;602;48.000;7.840;2022-10-16T09:03:14;20.10;99.90
1225;DHT22;602;48.000;7.840;2022-10-16T09:05:57;20.20;99.90
1225;DHT22;602;48.000;7.840;2022-10-16T09:08:33;20.40;99.90
1225;DHT22;602;48.000;7.840;2022-10-16T09:11:08;20.50;99.90
1225;DHT22;602;48.000;7.840;2022-10-16T09:13:48;20.50;99.90
1225;DHT22;602;48.000;7.840;2022-10-16T09:16:19;20.70;99.90
1225;DHT22;602;48.000;7.840;2022-10-16T09:18:56;20.80;99.90
1225;DHT22;602;48.000;7.840;2022-10-16T09:21:27;20.80;99.90
1225;DHT22;602;48.000;7.840;2022-10-16T09:23:57;20.80;99.90
1225;DHT22;602;48.000;7.840;2022-10-16T09:26:25;20.90;99.90
1225;DHT22;602;48.000;7.840;2022-10-16T09:28:53;20.90;99.90
1225;DHT22;602;48.000;7.840;2022-10-16T09:31:22;21.10;99.90
1225;DHT22;602;48.000;7.840;2022-10-16T09:33:52;21.20;99.90
1225;DHT22;602;48.000;7.840;2022-10-16T09:36:21;21.40;99.90
1225;DHT22;602;48.000;7.840;2022-10-16T09:38:49;21.70;99.90
1225;DHT22;602;48.000;7.840;2022-10-16T09:41:18;22.20;99.90
1225;DHT22;602;48.000;7.840;2022-10-16T09:43:53;22.50;99.90
1225;DHT22;602;48.000;7.840;2022-10-16T09:46:28;22.70;99.90
1225;DHT22;602;48.000;7.840;2022-10-16T09:48:57;23.10;99.90
1225;DHT22;602;48.000;7.840;2022-10-16T09:51:27;23.50;99.90
1225;DHT22;602;48.000;7.840;2022-10-16T09:53:56;23.80;99.90
1225;DHT22;602;48.000;7.840;2022-10-16T09:56:25;24.10;99.90
1225;DHT22;602;48.000;7.840;2022-10-16T09:59:08;24.50;99.90
1225;DHT22;602;48.000;7.840;2022-10-16T10:01:46;24.90;99.90
1225;DHT22;602;48.000;7.840;2022-10-16T10:04:23;25.10;99.90
1225;DHT22;602;48.000;7.840;2022-10-16T10:06:54;25.20;99.90
1225;DHT22;602;48.000;7.840;2022-10-16T10:09:30;25.30;99.90
1225;DHT22;602;48.000;7.840;2022-10-16T10:12:02;25.40;99.90
1225;DHT22;602;48.000;7.840;2022-10-16T10:14:47;25.60;99.90
1225;DHT22;602;48.000;7.840;2022-10-16T10:17:19;25.80;99.90
1225;DHT22;602;48.000;7.840;2022-10-16T10:19:54;25.90;99.90
1225;DHT22;602;48.000;7.840;2022-10-16T10:22:26;25.90;99.90
1225;DHT22;602;48.000;7.840;2022-10-16T10:25:21;26.10;99.90
1225;DHT22;602;48.000;7.840;2022-10-16T10:31:14;26.30;99.90
1225;DHT22;602;48.000;7.840;2022-10-16T10:33:57;26.30;99.90
1225;DHT22;602;48.000;7.840;2022-10-16T10:36:30;26.30;99.90
1225;DHT22;602;48.000;7.840;2022-10-16T10:39:05;26.40;99.90
1225;DHT22;602;48.000;7.840;2022-10-16T10:41:57;26.60;99.90
1225;DHT22;602;48.000;7.840;2022-10-16T10:45:03;26.70;99.90
1225;DHT22;602;48.000;7.840;2022-10-16T10:47:50;26.80;99.90
1225;DHT22;602;48.000;7.840;2022-10-16T10:50:33;26.80;99.90
1225;DHT22;602;48.000;7.840;2022-10-16T10:53:29;27.00;99.90
1225;DHT22;602;48.000;7.840;2022-10-16T10:56:14;26.90;99.90
1225;DHT22;602;48.000;7.840;2022-10-16T10:59:12;27.00;99.90
1225;DHT22;602;48.000;7.840;2022-10-16T11:01:52;27.10;99.90
1225;DHT22;602;48.000;7.840;2022-10-16T11:04:38;27.10;99.90
1225;DHT22;602;48.000;7.840;2022-10-16T11:07:16;27.10;99.90
1225;DHT22;602;48.000;7.840;2022-10-16T11:09:47;27.00;99.90
1225;DHT22;602;48.000;7.840;2022-10-16T11:12:18;27.10;99.90
1225;DHT22;602;48.000;7.840;2022-10-16T11:14:49;27.10;99.90
1225;DHT22;602;48.000;7.840;2022-10-16T11:17:21;27.10;99.90
1225;DHT22;602;48.000;7.840;2022-10-16T11:19:56;27.10;99.90
1225;DHT22;602;48.000;7.840;2022-10-16T11:22:28;27.10;99.90
1225;DHT22;602;48.000;7.840;2022-10-16T11:25:02;27.20;99.90
1225;DHT22;602;48.000;7.840;2022-10-16T11:27:36;27.10;99.90
1225;DHT22;602;48.000;7.840;2022-10-16T11:30:12;27.00;99.90
1225;DHT22;602;48.000;7.840;2022-10-16T11:32:52;27.00;99.90
1225;DHT22;602;48.000;7.840;2022-10-16T11:35:25;27.10;99.90
1225;DHT22;602;48.000;7.840;2022-10-16T11:37:56;27.20;99.90
1225;DHT22;602;48.000;7.840;2022-10-16T11:40:29;27.20;99.90
1225;DHT22;602;48.000;7.840;2022-10-16T11:43:04;27.40;99.90
1225;DHT22;602;48.000;7.840;2022-10-16T11:45:39;27.60;99.90
1225;DHT22;602;48.000;7.840;2022-10-16T11:48:18;27.80;99.90
1225;DHT22;602;48.000;7.840;2022-10-16T11:50:51;27.90;99.90
1225;DHT22;602;48.000;7.840;2022-10-16T11:53:27;28.10;99.90
1225;DHT22;602;48.000;7.840;2022-10-16T11:55:56;28.30;99.90
1225;DHT22;602;48.000;7.840;2022-10-16T11:58:27;28.50;99.90
1225;DHT22;602;48.000;7.840;2022-10-16T12:01:01;28.80;99.90
1225;DHT22;602;48.000;7.840;2022-10-16T12:03:34;28.90;99.90
1225;DHT22;602;48.000;7.840;2022-10-16T12:06:14;29.10;99.90
1225;DHT22;602;48.000;7.840;2022-10-16T12:08:46;29.20;99.90
1225;DHT22;602;48.000;7.840;2022-10-16T12:11:35;29.30;99.90
1225;DHT22;602;48.000;7.840;2022-10-16T12:14:19;29.30;99.90
1225;DHT22;602;48.000;7.840;2022-10-16T12:16:55;29.40;99.90
1225;DHT22;602;48.000;7.840;2022-10-16T12:19:23;29.40;99.90
1225;DHT22;602;48.000;7.840;2022-10-16T12:21:54;29.30;99.90
1225;DHT22;602;48.000;7.840;2022-10-16T12:24:33;29.30;99.90
1225;DHT22;602;48.000;7.840;2022-10-16T12:27:01;29.30;99.90
1225;DHT22;602;48.000;7.840;2022-10-16T12:29:35;29.20;99.90
1225;DHT22;602;48.000;7.840;2022-10-16T12:32:04;29.10;99.90
1225;DHT22;602;48.000;7.840;2022-10-16T12:34:38;29.10;99.90
1225;DHT22;602;48.000;7.840;2022-10-16T12:37:13;29.00;99.90
1225;DHT22;602;48.000;7.840;2022-10-16T12:39:41;29.20;99.90
1225;DHT22;602;48.000;7.840;2022-10-16T12:42:22;29.30;99.90
1225;DHT22;602;48.000;7.840;2022-10-16T12:44:49;29.40;99.90
1225;DHT22;602;48.000;7.840;2022-10-16T12:47:22;29.30;99.90
1225;DHT22;602;48.000;7.840;2022-10-16T12:49:51;29.40;99.90
1225;DHT22;602;48.000;7.840;2022-10-16T12:52:28;29.40;99.90
1225;DHT22;602;48.000;7.840;2022-10-16T12:54:58;29.70;99.90
1225;DHT22;602;48.000;7.840;2022-10-16T12:57:41;29.60;99.90
1225;DHT22;602;48.000;7.840;2022-10-16T13:00:20;29.80;99.90
1225;DHT22;602;48.000;7.840;2022-10-16T13:03:17;29.80;99.90
1225;DHT22;602;48.000;7.840;2022-10-16T13:05:58;29.80;99.90
1225;DHT22;602;48.000;7.840;2022-10-16T13:08:43;29.90;99.90
1225;DHT22;602;48.000;7.840;2022-10-16T13:11:19;29.80;99.90
1225;DHT22;602;48.000;7.840;2022-10-16T13:14:06;30.00;99.90
1225;DHT22;602;48.000;7.840;2022-10-16T13:16:42;30.10;99.90
1225;DHT22;602;48.000;7.840;2022-10-16T13:19:16;30.10;99.90
1225;DHT22;602;48.000;7.840;2022-10-16T13:21:51;30.10;99.90
1225;DHT22;602;48.000;7.840;2022-10-16T13:24:41;30.10;99.90
1225;DHT22;602;48.000;7.840;2022-10-16T13:27:16;30.00;99.90
1225;DHT22;602;48.000;7.840;2022-10-16T13:29:45;30.20;99.90
1225;DHT22;602;48.000;7.840;2022-10-16T13:32:19;30.10;99.90
1225;DHT22;602;48.000;7.840;2022-10-16T13:34:48;30.20;99.90
1225;DHT22;602;48.000;7.840;2022-10-16T13:37:18;30.30;99.90
1225;DHT22;602;48.000;7.840;2022-10-16T13:39:46;30.20;99.90
1225;DHT22;602;48.000;7.840;2022-10-16T13:42:25;30.10;99.90
1225;DHT22;602;48.000;7.840;2022-10-16T13:44:54;29.60;99.90
1225;DHT22;602;48.000;7.840;2022-10-16T13:47:22;29.50;99.90
1225;DHT22;602;48.000;7.840;2022-10-16T13:49:59;29.40;99.90
1225;DHT22;602;48.000;7.840;2022-10-16T13:52:26;29.30;99.90
1225;DHT22;602;48.000;7.840;2022-10-16T13:54:54;29.30;99.90
1225;DHT22;602;48.000;7.840;2022-10-16T13:57:22;29.20;99.90
1225;DHT22;602;48.000;7.840;2022-10-16T13:59:50;29.10;99.90
1225;DHT22;602;48.000;7.840;2022-10-16T14:02:21;29.20;99.90
1225;DHT22;602;48.000;7.840;2022-10-16T14:04:49;28.80;99.90
1225;DHT22;602;48.000;7.840;2022-10-16T14:07:20;28.80;99.90
1225;DHT22;602;48.000;7.840;2022-10-16T14:09:50;28.80;99.90
1225;DHT22;602;48.000;7.840;2022-10-16T14:12:19;28.80;99.90
1225;DHT22;602;48.000;7.840;2022-10-16T14:14:48;28.80;99.90
1225;DHT22;602;48.000;7.840;2022-10-16T14:17:19;28.70;99.90
1225;DHT22;602;48.000;7.840;2022-10-16T14:19:48;28.70;99.90
1225;DHT22;602;48.000;7.840;2022-10-16T14:22:26;28.50;99.90
1225;DHT22;602;48.000;7.840;2022-10-16T14:24:54;28.40;99.90
1225;DHT22;602;48.000;7.840;2022-10-16T14:27:29;28.30;99.90
1225;DHT22;602;48.000;7.840;2022-10-16T14:30:14;28.20;99.90
1225;DHT22;602;48.000;7.840;2022-10-16T14:32:53;28.20;99.90
1225;DHT22;602;48.000;7.840;2022-10-16T14:35:26;28.20;99.90
1225;DHT22;602;48.000;7.840;2022-10-16T14:37:54;28.20;99.90
1225;DHT22;602;48.000;7.840;2022-10-16T14:40:24;28.10;99.90
1225;DHT22;602;48.000;7.840;2022-10-16T14:42:53;28.10;99.90
1225;DHT22;602;48.000;7.840;2022-10-16T14:45:23;28.10;99.90
1225;DHT22;602;48.000;7.840;2022-10-16T14:47:53;28.10;99.90
1225;DHT22;602;48.000;7.840;2022-10-16T14:50:20;27.70;99.90
1225;DHT22;602;48.000;7.840;2022-10-16T14:52:47;27.70;99.90
1225;DHT22;602;48.000;7.840;2022-10-16T14:55:15;27.80;99.90
1225;DHT22;602;48.000;7.840;2022-10-16T14:57:43;27.70;99.90
1225;DHT22;602;48.000;7.840;2022-10-16T15:00:18;27.70;99.90
1225;DHT22;602;48.000;7.840;2022-10-16T15:02:46;27.80;99.90
1225;DHT22;602;48.000;7.840;2022-10-16T15:05:16;27.60;99.90
1225;DHT22;602;48.000;7.840;2022-10-16T15:07:43;27.60;99.90
1225;DHT22;602;48.000;7.840;2022-10-16T15:10:11;27.50;99.90
1225;DHT22;602;48.000;7.840;2022-10-16T15:12:38;27.40;99.90
1225;DHT22;602;48.000;7.840;2022-10-16T15:18:05;27.40;99.90
1225;DHT22;602;48.000;7.840;2022-10-16T15:20:34;27.30;99.90
1225;DHT22;602;48.000;7.840;2022-10-16T15:23:03;27.30;99.90
1225;DHT22;602;48.000;7.840;2022-10-16T15:25:33;27.30;99.90
1225;DHT22;602;48.000;7.840;2022-10-16T15:28:02;27.30;99.90
1225;DHT22;602;48.000;7.840;2022-10-16T15:30:29;27.30;99.90
1225;DHT22;602;48.000;7.840;2022-10-16T15:32:56;27.20;99.90
1225;DHT22;602;48.000;7.840;2022-10-16T15:35:24;27.20;99.90
1225;DHT22;602;48.000;7.840;2022-10-16T15:37:51;27.10;99.90
1225;DHT22;602;48.000;7.840;2022-10-16T15:40:19;27.10;99.90
1225;DHT22;602;48.000;7.840;2022-10-16T15:42:46;27.20;99.90
1225;DHT22;602;48.000;7.840;2022-10-16T15:45:14;27.10;99.90
1225;DHT22;602;48.000;7.840;2022-10-16T15:47:41;27.10;99.90
1225;DHT22;602;48.000;7.840;2022-10-16T15:50:10;27.00;99.90
1225;DHT22;602;48.000;7.840;2022-10-16T15:52:39;26.90;99.90
1225;DHT22;602;48.000;7.840;2022-10-16T15:55:07;26.90;99.90
1225;DHT22;602;48.000;7.840;2022-10-16T15:57:35;26.90;99.90
1225;DHT22;602;48.000;7.840;2022-10-16T16:00:06;26.90;99.90
1225;DHT22;602;48.000;7.840;2022-10-16T16:02:34;26.80;99.90
1225;DHT22;602;48.000;7.840;2022-10-16T16:05:00;26.80;99.90
1225;DHT22;602;48.000;7.840;2022-10-16T16:07:28;26.70;99.90
1225;DHT22;602;48.000;7.840;2022-10-16T16:09:56;26.70;99.90
1225;DHT22;602;48.000;7.840;2022-10-16T16:12:23;26.60;99.90
1225;DHT22;602;48.000;7.840;2022-10-16T16:14:50;26.60;99.90
1225;DHT22;602;48.000;7.840;2022-10-16T16:17:17;26.50;99.90
1225;DHT22;602;48.000;7.840;2022-10-16T16:19:45;26.30;99.90
1225;DHT22;602;48.000;7.840;2022-10-16T16:22:12;26.30;99.90
1225;DHT22;602;48.000;7.840;2022-10-16T16:24:39;26.10;99.90
1225;DHT22;602;48.000;7.840;2022-10-16T16:27:07;25.90;99.90
1225;DHT22;602;48.000;7.840;2022-10-16T16:29:35;25.80;99.90
1225;DHT22;602;48.000;7.840;2022-10-16T16:32:02;25.70;99.90
1225;DHT22;602;48.000;7.840;2022-10-16T16:34:29;25.60;99.90
1225;DHT22;602;48.000;7.840;2022-10-16T16:36:56;25.50;99.90
1225;DHT22;602;48.000;7.840;2022-10-16T16:39:23;25.30;99.90
1225;DHT22;602;48.000;7.840;2022-10-16T16:41:50;25.30;99.90
1225;DHT22;602;48.000;7.840;2022-10-16T16:44:19;25.10;99.90
1225;DHT22;602;48.000;7.840;2022-10-16T16:46:45;24.90;99.90